Time;durP1;ratioP1;P1;durP2;ratioP2;P2;SDS_P1;SDS_P2;PMS_P1;PMS_P2;Temp;Humidity;BMP_temperature;BMP_pressure;BME280_temperature;BME280_humidity;BME280_pressure;Samples;Min_cycle;Max_cycle;Signal;HPM_P1;HPM_P2
2023/05/22 00:01:07;;;;;;;32.20;28.75;;;;;;;;;;5032882;28;20049;-71
2023/05/22 00:03:35;;;;;;;31.63;28.23;;;;;;;;;;5029869;28;20036;-71
2023/05/22 00:06:01;;;;;;;31.02;27.75;;;;;;;;;;5032329;28;20125;-71
2023/05/22 00:08:27;;;;;;;33.88;29.10;;;;;;;;;;5035902;28;20042;-71
2023/05/22 00:10:54;;;;;;;32.35;29.08;;;;;;;;;;5033408;28;20045;-71
2023/05/22 00:13:20;;;;;;;33.30;28.85;;;;;;;;;;5034636;28;20045;-71
2023/05/22 00:15:46;;;;;;;31.30;27.98;;;;;;;;;;5034328;28;20487;-71
2023/05/22 00:18:12;;;;;;;32.78;29.35;;;;;;;;;;5033053;28;20048;-71
2023/05/22 00:20:39;;;;;;;33.00;29.27;;;;;;;;;;5034244;28;20087;-72
2023/05/22 00:23:08;;;;;;;32.47;28.95;;;;;;;;;;5034195;28;20052;-71
2023/05/22 00:25:35;;;;;;;29.23;26.17;;;;;;;;;;5033290;28;20049;-71
2023/05/22 00:28:01;;;;;;;29.95;26.88;;;;;;;;;;5034302;28;20163;-71
2023/05/22 00:30:27;;;;;;;33.40;29.58;;;;;;;;;;5034175;28;20095;-71
2023/05/22 00:32:53;;;;;;;32.35;28.88;;;;;;;;;;5034086;28;20050;-71
2023/05/22 00:35:19;;;;;;;33.42;30.02;;;;;;;;;;5032937;28;20038;-71
2023/05/22 00:37:45;;;;;;;32.75;28.95;;;;;;;;;;5034054;28;20059;-71
2023/05/22 00:40:12;;;;;;;32.75;29.33;;;;;;;;;;5033882;28;20085;-71
2023/05/22 00:42:38;;;;;;;31.63;28.33;;;;;;;;;;5034011;28;20045;-71
2023/05/22 00:45:05;;;;;;;33.10;28.95;;;;;;;;;;5030551;28;20057;-71
2023/05/22 00:47:31;;;;;;;32.85;29.45;;;;;;;;;;5030674;28;20483;-71
2023/05/22 00:50:00;;;;;;;33.00;29.60;;;;;;;;;;5030865;28;20052;-71
2023/05/22 00:52:26;;;;;;;30.95;27.67;;;;;;;;;;5031675;28;20053;-71
2023/05/22 00:54:53;;;;;;;33.47;29.90;;;;;;;;;;5036097;28;20526;-71
2023/05/22 00:57:20;;;;;;;32.53;29.23;;;;;;;;;;5031602;28;20045;-71
2023/05/22 00:59:47;;;;;;;33.60;30.17;;;;;;;;;;5046806;28;20084;-71
2023/05/22 01:02:15;;;;;;;32.38;29.02;;;;;;;;;;5027148;28;20041;-71
2023/05/22 01:04:44;;;;;;;32.13;28.80;;;;;;;;;;5026640;28;20100;-71
2023/05/22 01:07:10;;;;;;;33.22;29.75;;;;;;;;;;5028674;28;20548;-71
2023/05/22 01:09:36;;;;;;;32.25;28.92;;;;;;;;;;5033558;28;20068;-71
2023/05/22 01:12:20;;;;;;;31.92;28.52;;;;;;;;;;5033525;28;20049;-71
2023/05/22 01:15:21;;;;;;;31.25;28.05;;;;;;;;;;5034424;28;20137;-71
2023/05/22 01:17:52;;;;;;;29.40;26.40;;;;;;;;;;4932393;29;20059;-71
2023/05/22 01:20:25;;;;;;;33.10;29.70;;;;;;;;;;4930828;29;20079;-71
2023/05/22 01:23:05;;;;;;;31.65;28.42;;;;;;;;;;4914912;29;20195;-71
2023/05/22 01:25:34;;;;;;;29.90;26.75;;;;;;;;;;4914747;29;20060;-71
2023/05/22 01:28:06;;;;;;;29.92;26.80;;;;;;;;;;4922838;29;20052;-71
2023/05/22 01:30:47;;;;;;;32.75;29.55;;;;;;;;;;4933766;29;20055;-71
2023/05/22 01:33:17;;;;;;;31.83;28.42;;;;;;;;;;4932989;29;20070;-71
2023/05/22 01:35:46;;;;;;;33.20;29.73;;;;;;;;;;4919284;29;20044;-71
2023/05/22 01:38:12;;;;;;;31.90;28.83;;;;;;;;;;4930623;29;20048;-71
2023/05/22 01:40:39;;;;;;;32.25;28.80;;;;;;;;;;4926817;29;20048;-71
2023/05/22 01:43:05;;;;;;;34.03;30.23;;;;;;;;;;4916047;29;20044;-71
2023/05/22 01:45:31;;;;;;;34.35;30.83;;;;;;;;;;4915310;29;20086;-71
2023/05/22 01:47:57;;;;;;;33.75;30.15;;;;;;;;;;4926969;29;20052;-71
2023/05/22 01:50:25;;;;;;;33.40;29.00;;;;;;;;;;4919165;29;20044;-71
2023/05/22 01:53:10;;;;;;;32.35;29.17;;;;;;;;;;5027523;28;20053;-71
2023/05/22 01:55:39;;;;;;;34.45;30.90;;;;;;;;;;4995355;28;20050;-71
2023/05/22 01:58:24;;;;;;;34.90;31.27;;;;;;;;;;5046406;28;20121;-71
2023/05/22 02:00:53;;;;;;;33.05;29.55;;;;;;;;;;5031699;28;20056;-71
2023/05/22 02:03:21;;;;;;;34.28;30.40;;;;;;;;;;5031361;28;20057;-70
2023/05/22 02:05:51;;;;;;;36.33;32.63;;;;;;;;;;5029988;28;20046;-71
2023/05/22 02:08:17;;;;;;;34.92;31.52;;;;;;;;;;5026066;28;20404;-71
2023/05/22 02:10:44;;;;;;;34.90;31.35;;;;;;;;;;5032544;28;20491;-71
2023/05/22 02:13:10;;;;;;;37.70;32.20;;;;;;;;;;5031835;28;20048;-71
2023/05/22 02:15:37;;;;;;;35.13;31.63;;;;;;;;;;5031122;28;20368;-71
2023/05/22 02:18:03;;;;;;;35.38;31.80;;;;;;;;;;5030993;28;20419;-71
2023/05/22 02:20:29;;;;;;;34.90;31.30;;;;;;;;;;5031807;28;20053;-71
2023/05/22 02:22:55;;;;;;;36.65;32.72;;;;;;;;;;5031704;28;20050;-71
2023/05/22 02:25:21;;;;;;;36.22;32.47;;;;;;;;;;5030881;28;20053;-71
2023/05/22 02:27:48;;;;;;;31.95;28.90;;;;;;;;;;5034148;28;20049;-71
2023/05/22 02:30:14;;;;;;;31.42;28.40;;;;;;;;;;5035657;28;20053;-71
2023/05/22 02:32:41;;;;;;;32.30;28.63;;;;;;;;;;5035667;28;20045;-71
2023/05/22 02:35:07;;;;;;;33.78;30.20;;;;;;;;;;5035041;28;20041;-71
2023/05/22 02:37:33;;;;;;;32.33;29.13;;;;;;;;;;5035686;28;20049;-72
2023/05/22 02:40:00;;;;;;;32.50;29.30;;;;;;;;;;5034772;28;20135;-71
2023/05/22 02:42:26;;;;;;;34.72;31.33;;;;;;;;;;5034493;28;20050;-71
2023/05/22 02:44:52;;;;;;;35.22;31.52;;;;;;;;;;5034988;28;20530;-72
2023/05/22 02:47:18;;;;;;;32.88;29.40;;;;;;;;;;5035118;28;20042;-72
2023/05/22 02:49:45;;;;;;;33.58;30.38;;;;;;;;;;5033981;28;20094;-71
2023/05/22 02:52:11;;;;;;;34.88;30.85;;;;;;;;;;5035294;28;20056;-71
2023/05/22 02:54:37;;;;;;;32.17;28.95;;;;;;;;;;5034966;28;20056;-71
2023/05/22 02:57:03;;;;;;;32.85;29.60;;;;;;;;;;5024125;28;20045;-71
2023/05/22 02:59:30;;;;;;;34.72;31.23;;;;;;;;;;5035166;28;20049;-71
2023/05/22 03:01:56;;;;;;;34.70;30.92;;;;;;;;;;5020998;28;20050;-71
2023/05/22 03:04:23;;;;;;;33.67;29.95;;;;;;;;;;5026909;28;20045;-71
2023/05/22 03:06:49;;;;;;;34.20;30.67;;;;;;;;;;5032499;28;20048;-71
2023/05/22 03:09:15;;;;;;;34.47;30.98;;;;;;;;;;5033601;28;20041;-71
2023/05/22 03:11:41;;;;;;;34.42;29.40;;;;;;;;;;5033573;28;20045;-71
2023/05/22 03:14:08;;;;;;;32.88;29.40;;;;;;;;;;5034763;28;20045;-71
2023/05/22 03:16:34;;;;;;;32.13;28.92;;;;;;;;;;5034195;28;20381;-71
2023/05/22 03:19:10;;;;;;;33.35;29.92;;;;;;;;;;5034328;28;20072;-71
2023/05/22 03:21:36;;;;;;;32.35;28.88;;;;;;;;;;5034843;28;20073;-71
2023/05/22 03:24:02;;;;;;;30.60;27.40;;;;;;;;;;5020783;28;20042;-71
2023/05/22 03:26:29;;;;;;;31.55;28.40;;;;;;;;;;5026899;28;20045;-71
2023/05/22 03:28:55;;;;;;;32.08;28.88;;;;;;;;;;5033040;28;20050;-71
2023/05/22 03:31:21;;;;;;;31.65;28.55;;;;;;;;;;5027277;28;20079;-71
2023/05/22 03:33:47;;;;;;;31.98;28.63;;;;;;;;;;5032880;28;20037;-71
2023/05/22 03:36:14;;;;;;;30.75;27.65;;;;;;;;;;5032846;28;20492;-71
2023/05/22 03:38:41;;;;;;;32.30;28.83;;;;;;;;;;5030992;28;20056;-71
2023/05/22 03:41:07;;;;;;;31.65;28.38;;;;;;;;;;5033148;28;20506;-71
2023/05/22 03:43:33;;;;;;;34.78;30.58;;;;;;;;;;5030447;28;20068;-71
2023/05/22 03:45:59;;;;;;;34.17;29.67;;;;;;;;;;5031441;28;20418;-71
2023/05/22 03:48:26;;;;;;;32.65;29.15;;;;;;;;;;5015047;28;20053;-71
2023/05/22 03:50:52;;;;;;;32.58;29.25;;;;;;;;;;5032760;28;20612;-72
2023/05/22 03:53:18;;;;;;;32.97;29.77;;;;;;;;;;5023128;28;20041;-71
2023/05/22 03:55:44;;;;;;;31.30;28.17;;;;;;;;;;5023109;28;20551;-71
2023/05/22 03:58:10;;;;;;;33.35;29.80;;;;;;;;;;5019133;28;20050;-71
2023/05/22 04:00:37;;;;;;;34.08;30.67;;;;;;;;;;5029317;28;20093;-71
2023/05/22 04:03:03;;;;;;;33.70;30.38;;;;;;;;;;5031618;28;20053;-71
2023/05/22 04:05:30;;;;;;;34.40;31.02;;;;;;;;;;5026507;28;20041;-71
2023/05/22 04:07:56;;;;;;;35.40;31.88;;;;;;;;;;5010619;28;20084;-71
2023/05/22 04:10:23;;;;;;;35.00;31.60;;;;;;;;;;5040006;28;20045;-71
2023/05/22 04:12:49;;;;;;;33.55;30.05;;;;;;;;;;5032211;28;20120;-71
2023/05/22 04:15:15;;;;;;;32.03;28.65;;;;;;;;;;5033680;28;20048;-71
2023/05/22 04:17:41;;;;;;;32.08;28.98;;;;;;;;;;5033244;28;20499;-71
2023/05/22 04:20:08;;;;;;;34.83;31.33;;;;;;;;;;5033429;28;20056;-71
2023/05/22 04:22:34;;;;;;;34.10;30.70;;;;;;;;;;5033393;28;20046;-71
2023/05/22 04:25:00;;;;;;;33.13;29.70;;;;;;;;;;5004975;28;20045;-71
2023/05/22 04:27:28;;;;;;;32.90;29.10;;;;;;;;;;5033061;28;20079;-71
2023/05/22 04:29:54;;;;;;;33.13;29.65;;;;;;;;;;5033312;28;20059;-71
2023/05/22 04:32:20;;;;;;;34.92;31.50;;;;;;;;;;5033065;28;20049;-71
2023/05/22 04:34:49;;;;;;;33.22;30.02;;;;;;;;;;5030039;28;20049;-71
2023/05/22 04:37:17;;;;;;;33.40;30.20;;;;;;;;;;5032934;28;20053;-71
2023/05/22 04:39:44;;;;;;;32.92;29.08;;;;;;;;;;5031836;28;20054;-71
2023/05/22 04:42:10;;;;;;;32.67;29.70;;;;;;;;;;5021187;28;20041;-71
2023/05/22 04:44:37;;;;;;;33.13;29.73;;;;;;;;;;5031504;28;20122;-72
2023/05/22 04:47:03;;;;;;;32.25;29.15;;;;;;;;;;5025027;28;20049;-71
2023/05/22 04:49:30;;;;;;;33.47;30.27;;;;;;;;;;5031591;28;20056;-72
2023/05/22 04:51:57;;;;;;;34.50;30.30;;;;;;;;;;5028634;28;20060;-71
2023/05/22 04:54:23;;;;;;;33.30;29.77;;;;;;;;;;4995525;28;20137;-71
2023/05/22 04:56:50;;;;;;;32.10;28.88;;;;;;;;;;5020228;28;20072;-71
2023/05/22 04:59:18;;;;;;;33.00;29.50;;;;;;;;;;5029070;28;20061;-72
2023/05/22 05:01:46;;;;;;;31.73;28.45;;;;;;;;;;5019517;28;20049;-71
2023/05/22 05:04:13;;;;;;;32.58;29.27;;;;;;;;;;5027064;28;20046;-71
2023/05/22 05:06:39;;;;;;;31.48;28.48;;;;;;;;;;5028274;28;20382;-71
2023/05/22 05:09:05;;;;;;;30.65;27.65;;;;;;;;;;5030095;28;20042;-71
2023/05/22 05:11:32;;;;;;;31.25;28.10;;;;;;;;;;5019576;28;20045;-71
2023/05/22 05:13:58;;;;;;;30.58;27.58;;;;;;;;;;5031282;28;20511;-71
2023/05/22 05:16:25;;;;;;;30.42;27.52;;;;;;;;;;5032020;28;20042;-71
2023/05/22 05:18:52;;;;;;;29.55;26.70;;;;;;;;;;5029470;28;20038;-71
2023/05/22 05:21:20;;;;;;;30.42;27.38;;;;;;;;;;5031196;28;20623;-71
2023/05/22 05:23:46;;;;;;;29.85;26.75;;;;;;;;;;5016335;28;20083;-71
2023/05/22 05:26:12;;;;;;;30.25;27.25;;;;;;;;;;5022227;28;20049;-71
2023/05/22 05:28:39;;;;;;;29.33;26.42;;;;;;;;;;5029296;28;20044;-71
2023/05/22 05:31:06;;;;;;;29.25;26.17;;;;;;;;;;5029563;28;20129;-71
2023/05/22 05:33:32;;;;;;;28.25;25.60;;;;;;;;;;5029221;28;20114;-71
2023/05/22 05:35:58;;;;;;;27.92;25.15;;;;;;;;;;5032272;28;20064;-71
2023/05/22 05:38:24;;;;;;;27.10;24.40;;;;;;;;;;5030360;28;20045;-71
2023/05/22 05:40:51;;;;;;;30.67;25.10;;;;;;;;;;5031469;28;20068;-71
2023/05/22 05:43:17;;;;;;;27.70;24.80;;;;;;;;;;5013194;28;20052;-71
2023/05/22 05:45:43;;;;;;;27.55;24.75;;;;;;;;;;4994390;28;20072;-72
2023/05/22 05:48:10;;;;;;;28.40;25.38;;;;;;;;;;4998993;28;20038;-71
2023/05/22 05:50:36;;;;;;;27.40;24.80;;;;;;;;;;5007782;28;20046;-70
2023/05/22 05:53:02;;;;;;;27.80;25.13;;;;;;;;;;5010457;28;20096;-71
2023/05/22 05:55:29;;;;;;;27.63;25.00;;;;;;;;;;5008455;28;20050;-71
2023/05/22 05:57:55;;;;;;;27.40;24.65;;;;;;;;;;5007069;28;20140;-71
2023/05/22 06:00:21;;;;;;;27.23;23.70;;;;;;;;;;5007405;28;20053;-71
2023/05/22 06:02:47;;;;;;;27.90;25.17;;;;;;;;;;5009963;28;20049;-71
2023/05/22 06:05:16;;;;;;;28.15;25.27;;;;;;;;;;5011227;28;20050;-71
2023/05/22 06:07:42;;;;;;;28.30;25.13;;;;;;;;;;5011856;28;20053;-71
2023/05/22 06:10:09;;;;;;;28.73;25.67;;;;;;;;;;5021168;28;20496;-71
2023/05/22 06:12:36;;;;;;;29.40;26.48;;;;;;;;;;5008757;28;20046;-72
2023/05/22 06:15:04;;;;;;;28.77;25.85;;;;;;;;;;5012158;28;20053;-71
2023/05/22 06:17:30;;;;;;;28.95;26.00;;;;;;;;;;5014966;28;20060;-71
2023/05/22 06:19:56;;;;;;;29.75;26.60;;;;;;;;;;5009361;28;20076;-71
2023/05/22 06:22:24;;;;;;;28.63;25.73;;;;;;;;;;5012822;28;20073;-72
2023/05/22 06:24:53;;;;;;;30.10;26.88;;;;;;;;;;5013394;28;20045;-73
2023/05/22 06:27:21;;;;;;;30.92;27.48;;;;;;;;;;5015450;28;20129;-71
2023/05/22 06:29:47;;;;;;;29.63;26.77;;;;;;;;;;5013305;28;20045;-71
2023/05/22 06:32:13;;;;;;;30.33;27.30;;;;;;;;;;5014767;28;20054;-71
2023/05/22 06:34:39;;;;;;;30.85;27.60;;;;;;;;;;5015604;28;20054;-72
2023/05/22 06:37:05;;;;;;;29.63;26.52;;;;;;;;;;5014115;28;20041;-72
2023/05/22 06:39:31;;;;;;;28.88;25.95;;;;;;;;;;5015509;28;20053;-72
2023/05/22 06:41:57;;;;;;;30.30;27.15;;;;;;;;;;5014704;28;20044;-72
2023/05/22 06:44:24;;;;;;;29.85;26.85;;;;;;;;;;5015756;28;20096;-71
2023/05/22 06:46:51;;;;;;;28.25;25.25;;;;;;;;;;5033587;28;20065;-72
2023/05/22 06:49:17;;;;;;;30.30;26.95;;;;;;;;;;5034350;28;20041;-72
2023/05/22 06:51:43;;;;;;;30.38;27.17;;;;;;;;;;5032540;28;20511;-72
2023/05/22 06:54:11;;;;;;;30.98;25.92;;;;;;;;;;5034209;28;20442;-71
2023/05/22 06:56:37;;;;;;;29.02;25.25;;;;;;;;;;5031402;28;20128;-71
2023/05/22 06:59:03;;;;;;;28.65;25.15;;;;;;;;;;5029007;28;20050;-72
2023/05/22 07:01:30;;;;;;;27.85;24.77;;;;;;;;;;5029523;28;20475;-71
2023/05/22 07:03:57;;;;;;;27.27;24.38;;;;;;;;;;4993786;28;20045;-71
2023/05/22 07:06:23;;;;;;;28.00;25.05;;;;;;;;;;5030714;28;20053;-71
2023/05/22 07:08:50;;;;;;;27.02;24.33;;;;;;;;;;5029158;28;20041;-72
2023/05/22 07:11:16;;;;;;;26.80;24.13;;;;;;;;;;5033123;28;20045;-72
2023/05/22 07:13:42;;;;;;;27.88;22.98;;;;;;;;;;5032527;28;20049;-72
2023/05/22 07:16:08;;;;;;;26.70;23.98;;;;;;;;;;5045818;28;20099;-72
2023/05/22 07:18:34;;;;;;;25.77;23.08;;;;;;;;;;5034388;28;20136;-72
2023/05/22 07:21:00;;;;;;;26.55;23.75;;;;;;;;;;5034560;28;20077;-72
2023/05/22 07:23:26;;;;;;;24.70;22.25;;;;;;;;;;5034278;28;20389;-71
2023/05/22 07:25:52;;;;;;;25.05;21.83;;;;;;;;;;5034001;28;20415;-73
2023/05/22 07:28:18;;;;;;;23.92;21.35;;;;;;;;;;5040689;28;20049;-72
2023/05/22 07:30:44;;;;;;;23.88;21.38;;;;;;;;;;5033763;28;20041;-71
2023/05/22 07:33:11;;;;;;;23.70;21.25;;;;;;;;;;5034120;28;20128;-72
2023/05/22 07:35:37;;;;;;;23.05;20.42;;;;;;;;;;5034336;28;20049;-72
2023/05/22 07:38:03;;;;;;;24.58;20.25;;;;;;;;;;5031799;28;20081;-72
2023/05/22 07:40:30;;;;;;;25.30;22.70;;;;;;;;;;5034104;28;20041;-72
2023/05/22 07:42:56;;;;;;;22.92;20.52;;;;;;;;;;5034885;28;20124;-72
2023/05/22 07:45:22;;;;;;;23.33;19.58;;;;;;;;;;5033808;28;20530;-72
2023/05/22 07:47:48;;;;;;;23.95;19.58;;;;;;;;;;5033209;28;20124;-72
2023/05/22 07:50:14;;;;;;;23.30;18.80;;;;;;;;;;5033452;28;20049;-72
2023/05/22 07:52:40;;;;;;;21.45;19.35;;;;;;;;;;5037297;28;20041;-72
2023/05/22 07:55:07;;;;;;;20.92;18.55;;;;;;;;;;5024896;28;20148;-72
2023/05/22 07:57:35;;;;;;;26.70;18.10;;;;;;;;;;5033717;28;20049;-72
2023/05/22 08:00:05;;;;;;;20.00;17.80;;;;;;;;;;5032886;28;20175;-72
2023/05/22 08:02:32;;;;;;;21.60;18.20;;;;;;;;;;5033882;28;20124;-68
2023/05/22 08:04:58;;;;;;;20.95;18.08;;;;;;;;;;5041438;28;20049;-68
2023/05/22 08:07:24;;;;;;;22.88;18.13;;;;;;;;;;5033162;28;20415;-67
2023/05/22 08:09:50;;;;;;;21.08;17.45;;;;;;;;;;5032745;28;20129;-68
2023/05/22 08:12:16;;;;;;;20.40;18.00;;;;;;;;;;5032171;28;20045;-68
2023/05/22 08:14:42;;;;;;;20.40;17.63;;;;;;;;;;5032824;28;20072;-68
2023/05/22 08:17:08;;;;;;;19.50;16.55;;;;;;;;;;5030374;28;20041;-68
2023/05/22 08:19:34;;;;;;;24.30;17.50;;;;;;;;;;5041341;28;20487;-68
2023/05/22 08:22:01;;;;;;;20.38;16.48;;;;;;;;;;5036144;28;20052;-68
2023/05/22 08:24:28;;;;;;;25.45;17.20;;;;;;;;;;5026945;28;20054;-69
2023/05/22 08:26:55;;;;;;;23.30;17.15;;;;;;;;;;5029765;28;20411;-68
2023/05/22 08:29:21;;;;;;;17.55;15.73;;;;;;;;;;5021759;28;20050;-69
2023/05/22 08:31:47;;;;;;;30.17;19.15;;;;;;;;;;5032975;28;20048;-68
2023/05/22 08:34:13;;;;;;;20.90;15.98;;;;;;;;;;5031057;28;20042;-68
2023/05/22 08:36:40;;;;;;;21.10;16.67;;;;;;;;;;5043092;28;20048;-69
2023/05/22 08:39:07;;;;;;;17.92;15.98;;;;;;;;;;5037263;28;20425;-68
2023/05/22 08:41:33;;;;;;;22.65;15.90;;;;;;;;;;5030362;28;20072;-68
2023/05/22 08:43:59;;;;;;;20.13;15.88;;;;;;;;;;5006292;28;20049;-68
2023/05/22 08:46:27;;;;;;;18.30;14.13;;;;;;;;;;5013100;28;20057;-68
2023/05/22 08:48:57;;;;;;;17.05;15.25;;;;;;;;;;5026016;28;20136;-68
2023/05/22 08:51:27;;;;;;;17.02;15.25;;;;;;;;;;5029629;28;20049;-68
2023/05/22 08:53:55;;;;;;;17.85;14.38;;;;;;;;;;5023653;28;20049;-68
2023/05/22 08:56:21;;;;;;;18.85;14.63;;;;;;;;;;5029777;28;20119;-68
2023/05/22 08:58:47;;;;;;;16.55;14.75;;;;;;;;;;5029567;28;20538;-68
2023/05/22 09:01:14;;;;;;;21.80;14.85;;;;;;;;;;5030922;28;20053;-68
2023/05/22 09:03:40;;;;;;;17.55;13.77;;;;;;;;;;5026760;28;20050;-69
2023/05/22 09:06:09;;;;;;;18.33;14.77;;;;;;;;;;5024569;28;20049;-68
2023/05/22 09:08:35;;;;;;;19.55;14.88;;;;;;;;;;5030755;28;20194;-68
2023/05/22 09:11:01;;;;;;;17.25;14.32;;;;;;;;;;5029020;28;20064;-68
2023/05/22 09:13:29;;;;;;;17.70;14.30;;;;;;;;;;5027788;28;20045;-68
2023/05/22 09:15:59;;;;;;;15.75;14.07;;;;;;;;;;5031557;28;20380;-68
2023/05/22 09:18:29;;;;;;;17.30;13.67;;;;;;;;;;5044848;28;20050;-68
2023/05/22 09:20:56;;;;;;;19.73;15.43;;;;;;;;;;5003827;28;20049;-68
2023/05/22 09:23:24;;;;;;;21.38;14.60;;;;;;;;;;5022804;28;20045;-68
2023/05/22 09:25:53;;;;;;;17.67;13.77;;;;;;;;;;5027641;28;20045;-68
2023/05/22 09:28:19;;;;;;;22.02;14.35;;;;;;;;;;5029372;28;20062;-68
2023/05/22 09:30:48;;;;;;;18.95;14.02;;;;;;;;;;5030282;28;20053;-68
2023/05/22 09:33:16;;;;;;;18.75;14.70;;;;;;;;;;5030750;28;20430;-68
2023/05/22 09:35:42;;;;;;;16.50;13.82;;;;;;;;;;5030401;28;20046;-68
2023/05/22 09:38:09;;;;;;;17.40;13.98;;;;;;;;;;5030732;28;20053;-68
2023/05/22 09:40:37;;;;;;;18.50;13.98;;;;;;;;;;5046546;28;20044;-68
2023/05/22 09:43:07;;;;;;;17.30;13.90;;;;;;;;;;5028587;28;20053;-68
2023/05/22 09:45:34;;;;;;;18.02;14.73;;;;;;;;;;5031622;28;20057;-68
2023/05/22 09:48:01;;;;;;;18.83;14.20;;;;;;;;;;5030299;28;20057;-68
2023/05/22 09:50:27;;;;;;;18.25;13.68;;;;;;;;;;4994835;28;20046;-68
2023/05/22 09:52:53;;;;;;;18.58;14.10;;;;;;;;;;5022322;28;20034;-68
2023/05/22 09:55:23;;;;;;;19.00;13.82;;;;;;;;;;5030688;28;20471;-68
2023/05/22 09:57:51;;;;;;;14.60;13.07;;;;;;;;;;5023710;28;20442;-68
2023/05/22 10:00:18;;;;;;;21.52;14.68;;;;;;;;;;5022052;28;20055;-67
2023/05/22 10:02:47;;;;;;;18.38;13.93;;;;;;;;;;5027502;28;20093;-67
2023/05/22 10:05:23;;;;;;;19.23;13.48;;;;;;;;;;5030173;28;20038;-68
2023/05/22 10:07:50;;;;;;;19.65;14.00;;;;;;;;;;5026368;28;20045;-68
2023/05/22 10:10:24;;;;;;;19.38;14.02;;;;;;;;;;5029930;28;20120;-68
2023/05/22 10:12:51;;;;;;;20.55;14.45;;;;;;;;;;5029825;28;20045;-68
2023/05/22 10:15:18;;;;;;;19.75;13.90;;;;;;;;;;5028324;28;20045;-69
2023/05/22 10:17:44;;;;;;;17.27;13.95;;;;;;;;;;5046839;28;20092;-69
2023/05/22 10:20:12;;;;;;;19.92;14.32;;;;;;;;;;5037947;28;20187;-69
2023/05/22 10:22:38;;;;;;;19.58;14.05;;;;;;;;;;5031163;28;20107;-69
2023/05/22 10:25:05;;;;;;;22.30;14.52;;;;;;;;;;5030019;28;20495;-68
2023/05/22 10:27:31;;;;;;;19.25;14.10;;;;;;;;;;5011379;28;20050;-66
2023/05/22 10:30:05;;;;;;;17.60;14.23;;;;;;;;;;5025417;28;20073;-67
2023/05/22 10:32:40;;;;;;;18.05;13.63;;;;;;;;;;5033013;28;20411;-67
2023/05/22 10:35:06;;;;;;;18.48;14.10;;;;;;;;;;5029269;28;20096;-66
2023/05/22 10:37:35;;;;;;;17.23;13.73;;;;;;;;;;5024550;28;20451;-66
2023/05/22 10:40:04;;;;;;;16.55;14.75;;;;;;;;;;5028679;28;20466;-66
2023/05/22 10:42:31;;;;;;;17.35;12.60;;;;;;;;;;5030328;28;20045;-66
2023/05/22 10:44:58;;;;;;;18.50;13.18;;;;;;;;;;5031106;28;20454;-66
2023/05/22 10:47:25;;;;;;;19.52;13.75;;;;;;;;;;5030276;28;20046;-66
2023/05/22 10:50:02;;;;;;;19.75;14.07;;;;;;;;;;5034684;28;20045;-67
2023/05/22 10:52:28;;;;;;;18.92;14.98;;;;;;;;;;5035071;28;20037;-67
2023/05/22 10:54:54;;;;;;;18.13;13.70;;;;;;;;;;5034018;28;20053;-66
2023/05/22 10:57:23;;;;;;;20.15;15.18;;;;;;;;;;5014220;28;20059;-67
2023/05/22 10:59:50;;;;;;;17.38;13.27;;;;;;;;;;5032870;28;20046;-66
2023/05/22 11:02:30;;;;;;;19.67;14.73;;;;;;;;;;5032294;28;20127;-67
2023/05/22 11:05:16;;;;;;;23.15;16.20;;;;;;;;;;5027680;28;20041;-66
2023/05/22 11:07:42;;;;;;;17.70;15.70;;;;;;;;;;5029812;28;20045;-66
2023/05/22 11:10:08;;;;;;;19.45;16.20;;;;;;;;;;5033702;28;20041;-66
2023/05/22 11:12:34;;;;;;;24.00;15.75;;;;;;;;;;5034231;28;20046;-66
2023/05/22 11:15:07;;;;;;;20.25;16.13;;;;;;;;;;5035608;28;20095;-67
2023/05/22 11:17:36;;;;;;;20.48;16.30;;;;;;;;;;5014915;28;20046;-66
2023/05/22 11:20:05;;;;;;;22.00;15.25;;;;;;;;;;5030104;28;20061;-66
2023/05/22 11:22:35;;;;;;;22.25;16.05;;;;;;;;;;5032139;28;20140;-67
2023/05/22 11:25:19;;;;;;;19.05;15.95;;;;;;;;;;5032921;28;20474;-67
2023/05/22 11:27:48;;;;;;;24.48;15.70;;;;;;;;;;5031985;28;20057;-69
2023/05/22 11:30:15;;;;;;;22.40;16.25;;;;;;;;;;5045240;28;20045;-67
2023/05/22 11:32:46;;;;;;;19.92;15.85;;;;;;;;;;5030723;28;20132;-67
2023/05/22 11:35:19;;;;;;;22.33;18.10;;;;;;;;;;5027434;28;20056;-67
2023/05/22 11:37:45;;;;;;;22.48;16.13;;;;;;;;;;5044404;28;20142;-67
2023/05/22 11:40:15;;;;;;;23.67;17.10;;;;;;;;;;5041939;28;20376;-66
2023/05/22 11:42:41;;;;;;;22.83;18.02;;;;;;;;;;5033639;28;20045;-67
2023/05/22 11:45:08;;;;;;;20.77;17.35;;;;;;;;;;5034105;28;20053;-66
2023/05/22 11:47:35;;;;;;;23.70;17.65;;;;;;;;;;5032539;28;20045;-67
2023/05/22 11:50:01;;;;;;;21.55;16.95;;;;;;;;;;5032722;28;20049;-68
2023/05/22 11:52:33;;;;;;;20.00;17.75;;;;;;;;;;4993708;28;20038;-66
2023/05/22 11:55:00;;;;;;;20.42;18.20;;;;;;;;;;5030096;28;20455;-72
2023/05/22 11:57:26;;;;;;;20.73;17.65;;;;;;;;;;5034416;28;20049;-74
2023/05/22 11:59:52;;;;;;;19.73;17.63;;;;;;;;;;5052775;28;20075;-72
2023/05/22 12:02:19;;;;;;;18.95;16.92;;;;;;;;;;5038912;28;20054;-72
2023/05/22 12:04:45;;;;;;;22.63;18.05;;;;;;;;;;5032898;28;20552;-72
2023/05/22 12:07:12;;;;;;;24.58;18.85;;;;;;;;;;5033071;28;20083;-72
2023/05/22 12:09:39;;;;;;;21.00;18.90;;;;;;;;;;5033405;28;20041;-72
2023/05/22 12:12:05;;;;;;;21.63;19.35;;;;;;;;;;5032734;28;20052;-71
2023/05/22 12:14:31;;;;;;;22.25;19.90;;;;;;;;;;5032802;28;20054;-72
2023/05/22 12:16:58;;;;;;;20.65;18.48;;;;;;;;;;5029379;28;20041;-72
2023/05/22 12:19:25;;;;;;;21.42;19.23;;;;;;;;;;5032702;28;20051;-72
2023/05/22 12:21:51;;;;;;;20.60;18.50;;;;;;;;;;5043052;28;20487;-72
2023/05/22 12:24:22;;;;;;;22.77;18.58;;;;;;;;;;5032925;28;20048;-72
2023/05/22 12:26:50;;;;;;;22.48;20.10;;;;;;;;;;5039673;28;20069;-72
2023/05/22 12:29:16;;;;;;;22.35;19.75;;;;;;;;;;5036392;28;20529;-72
2023/05/22 12:31:45;;;;;;;22.50;20.20;;;;;;;;;;5030999;28;20049;-72
2023/05/22 12:34:11;;;;;;;21.75;19.67;;;;;;;;;;5041677;28;20507;-72
2023/05/22 12:36:41;;;;;;;21.23;18.95;;;;;;;;;;5025261;28;20084;-72
2023/05/22 12:39:25;;;;;;;22.65;20.48;;;;;;;;;;5033129;28;20488;-73
2023/05/22 12:41:51;;;;;;;21.80;19.33;;;;;;;;;;5033089;28;20054;-73
2023/05/22 12:44:17;;;;;;;22.45;19.55;;;;;;;;;;5033073;28;20062;-73
2023/05/22 12:46:43;;;;;;;22.63;20.08;;;;;;;;;;5022686;28;20060;-73
2023/05/22 12:49:10;;;;;;;20.27;18.08;;;;;;;;;;5023029;28;20072;-72
2023/05/22 12:51:36;;;;;;;20.85;18.80;;;;;;;;;;5033187;28;20084;-73
2023/05/22 12:54:03;;;;;;;20.55;18.65;;;;;;;;;;5033678;28;20060;-73
2023/05/22 12:56:29;;;;;;;21.70;19.50;;;;;;;;;;5036732;28;20513;-71
2023/05/22 12:58:58;;;;;;;23.88;20.85;;;;;;;;;;5032796;28;20107;-72
2023/05/22 13:01:25;;;;;;;21.65;19.02;;;;;;;;;;5034959;28;20132;-71
2023/05/22 13:03:52;;;;;;;20.55;18.35;;;;;;;;;;5014934;28;20491;-72
2023/05/22 13:06:18;;;;;;;19.60;17.50;;;;;;;;;;5006423;28;20040;-72
2023/05/22 13:08:44;;;;;;;19.33;17.33;;;;;;;;;;5039083;28;20399;-72
2023/05/22 13:11:11;;;;;;;19.90;17.90;;;;;;;;;;5032396;28;20045;-72
2023/05/22 13:13:37;;;;;;;20.13;17.95;;;;;;;;;;5014577;28;20422;-72
2023/05/22 13:16:03;;;;;;;17.42;15.68;;;;;;;;;;5032566;28;20395;-72
2023/05/22 13:18:30;;;;;;;15.60;13.35;;;;;;;;;;5032206;28;20085;-72
2023/05/22 13:20:56;;;;;;;17.10;14.18;;;;;;;;;;5038303;28;20507;-72
2023/05/22 13:23:22;;;;;;;19.30;16.67;;;;;;;;;;5032092;28;20128;-71
2023/05/22 13:25:48;;;;;;;16.73;14.98;;;;;;;;;;5032523;28;20056;-72
2023/05/22 13:28:14;;;;;;;16.25;14.55;;;;;;;;;;5047373;28;20065;-72
2023/05/22 13:30:40;;;;;;;17.48;14.35;;;;;;;;;;5032578;28;20087;-72
2023/05/22 13:33:07;;;;;;;19.75;13.48;;;;;;;;;;5027765;28;20095;-71
2023/05/22 13:35:33;;;;;;;21.42;17.27;;;;;;;;;;5020690;28;20919;-71
2023/05/22 13:37:59;;;;;;;19.33;17.08;;;;;;;;;;5014331;28;20055;-72
2023/05/22 13:40:25;;;;;;;17.48;14.45;;;;;;;;;;5032080;28;20419;-71
2023/05/22 13:42:51;;;;;;;18.33;12.73;;;;;;;;;;5013908;28;20509;-72
2023/05/22 13:45:17;;;;;;;17.40;11.27;;;;;;;;;;5032327;28;20081;-72
2023/05/22 13:47:44;;;;;;;12.85;11.48;;;;;;;;;;5032028;28;20049;-71
2023/05/22 13:50:10;;;;;;;13.82;11.90;;;;;;;;;;5040844;28;20361;-71
2023/05/22 13:52:36;;;;;;;13.63;12.07;;;;;;;;;;5031343;28;20055;-71
2023/05/22 13:55:02;;;;;;;12.32;11.10;;;;;;;;;;5030045;28;20041;-71
2023/05/22 13:57:28;;;;;;;15.07;11.40;;;;;;;;;;4996619;28;20057;-71
2023/05/22 13:59:54;;;;;;;14.90;11.05;;;;;;;;;;5030631;28;20045;-72
2023/05/22 14:02:21;;;;;;;12.82;10.02;;;;;;;;;;5027967;28;20050;-71
2023/05/22 14:04:47;;;;;;;57.33;15.68;;;;;;;;;;5027614;28;20045;-71
2023/05/22 14:07:14;;;;;;;15.57;11.38;;;;;;;;;;5029961;28;20052;-72
2023/05/22 14:09:40;;;;;;;21.17;16.60;;;;;;;;;;5031724;28;20040;-73
2023/05/22 14:12:06;;;;;;;23.10;17.45;;;;;;;;;;5032305;28;20041;-73
2023/05/22 14:14:32;;;;;;;20.60;18.55;;;;;;;;;;5025770;28;20132;-73
2023/05/22 14:16:59;;;;;;;19.90;18.00;;;;;;;;;;5030331;28;20341;-73